createdAt,value
2019-02-21T00:02:10.005Z,101925.30
2019-02-21T00:04:38.180Z,101929.84
2019-02-21T00:07:06.041Z,101921.77
2019-02-21T00:09:34.267Z,101922.48
2019-02-21T00:12:02.588Z,101923.46
2019-02-21T00:14:30.491Z,101920.38
2019-02-21T00:16:58.708Z,101924.45
2019-02-21T00:19:27.294Z,101929.78
2019-02-21T00:21:55.540Z,101921.27
2019-02-21T00:24:23.725Z,101930.23
2019-02-21T00:26:51.526Z,101926.28
2019-02-21T00:29:19.377Z,101928.98
2019-02-21T00:31:48.315Z,101928.08
2019-02-21T00:34:16.158Z,101925.76
2019-02-21T00:36:44.497Z,101923.68
2019-02-21T00:39:12.395Z,101917.41
2019-02-21T00:41:40.460Z,101925.34
2019-02-21T00:44:08.337Z,101915.94
2019-02-21T00:46:36.673Z,101913.23
2019-02-21T00:49:04.957Z,101913.41
2019-02-21T00:51:32.851Z,101919.28
2019-02-21T00:54:01.361Z,101899.19
2019-02-21T00:56:29.191Z,101914.84
2019-02-21T00:58:57.309Z,101920.38
2019-02-21T01:01:25.585Z,101929.11
2019-02-21T01:03:53.651Z,101928.70
2019-02-21T01:06:23.339Z,101926.87
2019-02-21T01:09:04.448Z,101914.35
2019-02-21T01:12:00.896Z,101914.39
2019-02-21T01:14:28.741Z,101917.49
2019-02-21T01:16:56.537Z,101929.95
2019-02-21T01:19:24.313Z,101924.66
2019-02-21T01:21:52.068Z,101927.40
2019-02-21T01:24:19.840Z,101926.54
2019-02-21T01:26:47.604Z,101922.05
2019-02-21T01:29:15.429Z,101920.67
2019-02-21T01:31:43.191Z,101929.31
2019-02-21T01:34:10.950Z,101924.83
2019-02-21T01:36:38.713Z,101927.52
2019-02-21T01:39:06.910Z,101927.92
2019-02-21T01:41:34.688Z,101920.27
2019-02-21T01:44:04.581Z,101913.58
2019-02-21T01:46:32.157Z,101919.86
2019-02-21T01:48:59.946Z,101918.55
2019-02-21T01:51:27.722Z,101915.41
2019-02-21T01:53:55.465Z,101906.32
2019-02-21T01:56:23.225Z,101900.54
2019-02-21T01:58:50.964Z,101907.18
2019-02-21T02:01:18.722Z,101914.48
2019-02-21T02:03:46.473Z,101910.94
2019-02-21T02:06:14.232Z,101906.86
2019-02-21T02:08:42.268Z,101910.44
2019-02-21T02:11:10.013Z,101909.67
2019-02-21T02:13:37.852Z,101918.23
2019-02-21T02:16:05.605Z,101913.66
2019-02-21T02:18:33.364Z,101914.06
2019-02-21T02:27:32.478Z,101908.73
2019-02-21T02:30:00.397Z,101913.33
2019-02-21T02:32:28.276Z,101912.84
2019-02-21T02:34:56.184Z,101910.11
2019-02-21T02:37:23.945Z,101911.05
2019-02-21T02:39:51.667Z,101920.88
2019-02-21T02:42:19.427Z,101918.71
2019-02-21T02:44:47.482Z,101911.91
2019-02-21T02:47:15.276Z,101911.95
2019-02-21T02:49:43.035Z,101915.95
2019-02-21T02:52:10.805Z,101917.68
2019-02-21T02:54:38.627Z,101914.56
2019-02-21T02:57:06.380Z,101915.53
2019-02-21T02:59:40.848Z,101917.66
2019-02-21T03:02:03.641Z,101925.80
2019-02-21T03:04:31.483Z,101920.50
2019-02-21T03:07:00.845Z,101922.70
2019-02-21T03:09:28.750Z,101916.91
2019-02-21T03:11:56.588Z,101920.50
2019-02-21T03:14:24.336Z,101922.74
2019-02-21T03:16:52.389Z,101921.36
2019-02-21T03:19:20.221Z,101888.43
2019-02-21T03:21:48.110Z,101917.00
2019-02-21T03:24:15.881Z,101916.06
2019-02-21T03:26:43.657Z,101910.72
2019-02-21T03:29:11.466Z,101918.75
2019-02-21T03:31:53.664Z,101919.23
2019-02-21T03:34:08.681Z,101910.69
2019-02-21T03:36:36.450Z,101887.53
2019-02-21T03:39:05.153Z,101907.50
2019-02-21T03:41:33.139Z,101911.58
2019-02-21T03:44:00.924Z,101913.41
2019-02-21T03:46:28.724Z,101914.72
2019-02-21T03:48:56.553Z,101914.80
2019-02-21T03:51:24.583Z,101920.47
2019-02-21T03:53:54.052Z,101917.89
2019-02-21T03:56:21.836Z,101924.58
2019-02-21T03:58:49.665Z,101921.11
2019-02-21T04:01:17.496Z,101917.03
2019-02-21T04:03:45.306Z,101922.41
2019-02-21T04:06:13.341Z,101915.24
2019-02-21T04:08:41.179Z,101921.06
2019-02-21T04:11:08.959Z,101917.48
2019-02-21T04:13:36.831Z,101915.32
2019-02-21T04:16:04.799Z,101921.48
2019-02-21T04:18:32.553Z,101920.21
2019-02-21T04:21:00.300Z,101919.27
2019-02-21T04:23:28.036Z,101920.69
2019-02-21T04:25:55.849Z,101920.59
2019-02-21T04:28:23.651Z,101916.17
2019-02-21T04:30:51.522Z,101912.70
2019-02-21T04:33:19.276Z,101915.36
2019-02-21T04:35:47.122Z,101913.53
2019-02-21T04:38:14.883Z,101912.14
2019-02-21T04:40:42.697Z,101906.36
2019-02-21T04:43:10.450Z,101896.95
2019-02-21T04:45:38.216Z,101896.98
2019-02-21T04:48:05.969Z,101893.81
2019-02-21T04:50:33.728Z,101891.97
2019-02-21T04:53:01.541Z,101885.25
2019-02-21T04:55:29.304Z,101895.60
2019-02-21T04:57:57.069Z,101894.78
2019-02-21T05:00:24.832Z,101894.25
2019-02-21T05:02:52.597Z,101897.39
2019-02-21T05:05:20.362Z,101900.56
2019-02-21T05:07:48.143Z,101897.47
2019-02-21T05:10:15.924Z,101896.58
2019-02-21T05:12:43.770Z,101896.05
2019-02-21T05:15:13.917Z,101900.98
2019-02-21T05:17:45.740Z,101897.02
2019-02-21T05:20:13.504Z,101897.92
2019-02-21T05:22:41.300Z,101899.67
2019-02-21T05:25:09.046Z,101902.28
2019-02-21T05:27:40.532Z,101901.05
2019-02-21T05:30:09.605Z,101897.47
2019-02-21T05:32:45.432Z,101896.91
2019-02-21T05:35:32.439Z,101897.87
2019-02-21T05:38:19.370Z,101893.92
2019-02-21T05:40:57.888Z,101899.67
2019-02-21T05:43:44.765Z,101894.81
2019-02-21T05:46:30.094Z,101890.83
2019-02-21T05:49:17.003Z,101896.64
2019-02-21T05:52:06.764Z,101894.00
2019-02-21T05:54:42.614Z,101896.69
2019-02-21T05:57:35.417Z,101893.59
2019-02-21T06:00:28.274Z,101885.94
2019-02-21T06:03:10.136Z,101895.60
2019-02-21T06:06:00.417Z,101896.20
2019-02-21T06:08:38.539Z,101900.27
2019-02-21T06:11:13.953Z,101875.33
2019-02-21T06:14:03.697Z,101905.53
2019-02-21T06:16:37.750Z,101900.23
2019-02-21T06:19:25.871Z,101896.23
2019-02-21T06:22:10.736Z,101897.99
2019-02-21T06:24:55.058Z,101897.99
2019-02-21T06:27:27.045Z,101900.23
2019-02-21T06:29:58.888Z,101891.31
2019-02-21T06:32:26.631Z,101897.50
2019-02-21T06:34:54.411Z,101894.37
2019-02-21T06:37:22.169Z,101905.13
2019-02-21T06:39:49.944Z,101905.09
2019-02-21T06:42:17.817Z,101905.09
2019-02-21T06:44:45.633Z,101902.51
2019-02-21T06:47:13.398Z,101904.78
2019-02-21T06:49:41.236Z,101903.86
2019-02-21T06:52:08.989Z,101910.12
2019-02-21T06:54:37.204Z,101908.27
2019-02-21T06:57:05.036Z,101915.50
2019-02-21T06:59:42.170Z,101920.84
2019-02-21T07:02:02.328Z,101916.33
2019-02-21T07:04:30.160Z,101919.98
2019-02-21T07:06:57.956Z,101924.95
2019-02-21T07:09:25.751Z,101925.73
2019-02-21T07:11:53.532Z,101927.45
2019-02-21T07:14:21.332Z,101920.80
2019-02-21T07:16:49.105Z,101931.08
2019-02-21T07:19:17.067Z,101930.22
2019-02-21T07:21:46.004Z,101923.91
2019-02-21T07:24:14.170Z,101920.25
2019-02-21T07:26:42.849Z,101936.72
2019-02-21T07:29:10.861Z,101936.41
2019-02-21T07:31:38.599Z,101924.42
2019-02-21T07:34:07.172Z,101938.21
2019-02-21T07:36:35.176Z,101944.78
2019-02-21T07:39:16.533Z,101951.23
2019-02-21T07:41:33.468Z,101944.93
2019-02-21T07:44:11.350Z,101944.38
2019-02-21T07:46:32.386Z,101943.06
2019-02-21T07:49:00.458Z,101937.20
2019-02-21T07:51:28.300Z,101939.92
2019-02-21T07:53:56.225Z,101954.45
2019-02-21T07:56:24.084Z,101959.13
2019-02-21T07:58:51.972Z,101975.33
2019-02-21T08:01:19.950Z,101959.75
2019-02-21T08:03:48.829Z,101983.33
2019-02-21T08:06:16.688Z,101984.74
2019-02-21T08:08:45.084Z,101986.02
2019-02-21T08:11:12.894Z,101987.77
2019-02-21T08:13:40.768Z,101993.12
2019-02-21T08:16:08.542Z,102000.63
2019-02-21T08:18:36.452Z,102004.88
2019-02-21T08:21:04.343Z,102007.59
2019-02-21T08:23:32.606Z,102008.02
2019-02-21T08:26:00.453Z,102007.05
2019-02-21T08:28:33.554Z,102003.77
2019-02-21T08:31:01.441Z,102009.33
2019-02-21T08:34:00.442Z,102007.59
2019-02-21T08:36:28.375Z,102004.43
2019-02-21T08:38:56.154Z,102007.59
2019-02-21T08:41:25.763Z,102006.19
2019-02-21T08:43:53.473Z,102013.84
2019-02-21T08:46:21.319Z,102007.53
2019-02-21T08:48:49.209Z,102015.25
2019-02-21T08:51:18.427Z,102017.49
2019-02-21T08:53:46.462Z,102023.22
2019-02-21T08:56:14.237Z,102024.01
2019-02-21T08:58:42.008Z,102012.87
2019-02-21T09:01:09.736Z,102014.67
2019-02-21T09:03:37.629Z,102015.08
2019-02-21T09:06:05.447Z,102012.42
2019-02-21T09:08:36.763Z,102019.12
2019-02-21T09:11:04.025Z,102009.25
2019-02-21T09:13:32.200Z,102005.67
2019-02-21T09:16:00.290Z,102008.81
2019-02-21T09:18:28.052Z,102008.77
2019-02-21T09:20:55.816Z,101997.49
2019-02-21T09:23:24.043Z,101990.77
2019-02-21T09:25:51.869Z,101978.77
2019-02-21T09:28:19.648Z,101968.05
2019-02-21T09:30:47.508Z,101996.11
2019-02-21T09:33:18.036Z,101993.87
2019-02-21T09:35:44.906Z,101987.11
2019-02-21T09:38:12.734Z,101988.08
2019-02-21T09:40:42.662Z,101992.08
2019-02-21T09:43:10.165Z,101986.70
2019-02-21T09:45:38.178Z,101985.42
2019-02-21T09:48:05.980Z,101990.84
2019-02-21T09:50:33.880Z,101985.84
2019-02-21T09:53:01.719Z,101978.14
2019-02-21T09:55:29.834Z,101975.45
2019-02-21T09:57:57.949Z,101941.76
2019-02-21T10:00:25.764Z,101986.58
2019-02-21T10:02:56.558Z,101984.79
2019-02-21T10:05:22.968Z,101991.10
2019-02-21T10:07:50.737Z,101983.48
2019-02-21T10:10:21.550Z,101981.69
2019-02-21T10:12:49.301Z,101975.41
2019-02-21T10:15:17.082Z,101977.66
2019-02-21T10:17:44.949Z,101988.30
2019-02-21T10:20:26.476Z,101984.75
2019-02-21T10:23:11.023Z,101979.73
2019-02-21T10:26:10.171Z,101977.38
2019-02-21T10:28:38.223Z,101957.44
2019-02-21T10:31:09.577Z,101980.59
2019-02-21T10:33:46.600Z,101982.95
2019-02-21T10:36:07.034Z,101943.81
2019-02-21T10:38:34.880Z,101984.67
2019-02-21T10:41:02.641Z,101981.12
2019-02-21T10:43:30.393Z,101989.19
2019-02-21T10:45:58.271Z,101985.61
2019-02-21T10:48:26.028Z,101987.52
2019-02-21T10:50:53.825Z,101987.44
2019-02-21T10:53:21.578Z,101991.32
2019-02-21T10:55:49.381Z,101994.81
2019-02-21T10:58:17.157Z,101992.17
2019-02-21T11:00:48.949Z,101988.22
2019-02-21T11:03:16.784Z,101985.45
2019-02-21T11:05:44.524Z,101925.06
2019-02-21T11:08:12.492Z,101996.29
2019-02-21T11:10:40.260Z,102013.95
2019-02-21T11:13:08.255Z,102012.11
2019-02-21T11:15:43.643Z,102018.14
2019-02-21T11:18:10.947Z,102018.09
2019-02-21T11:20:38.693Z,102011.73
2019-02-21T11:23:06.724Z,102002.41
2019-02-21T11:25:34.581Z,102013.09
2019-02-21T11:28:02.321Z,102013.98
2019-02-21T11:30:30.118Z,102005.01
2019-02-21T11:32:57.878Z,102001.51
2019-02-21T11:35:25.633Z,102013.63
2019-02-21T11:37:53.412Z,102012.72
2019-02-21T11:40:21.164Z,102009.54
2019-02-21T11:42:49.064Z,102016.27
2019-02-21T11:45:16.903Z,102014.97
2019-02-21T11:47:44.679Z,102016.75
2019-02-21T11:50:13.059Z,102011.20
2019-02-21T11:52:40.805Z,102007.70
2019-02-21T11:55:09.004Z,102008.56
2019-02-21T11:57:36.732Z,102011.66
2019-02-21T12:00:05.015Z,101997.88
2019-02-21T12:02:38.906Z,101997.47
2019-02-21T12:05:02.261Z,102002.81
2019-02-21T12:07:30.044Z,102009.61
2019-02-21T12:09:57.810Z,102013.86
2019-02-21T12:12:25.552Z,102004.53
2019-02-21T12:14:53.329Z,102009.86
2019-02-21T12:17:21.184Z,102007.13
2019-02-21T12:19:49.019Z,102008.61
2019-02-21T12:22:16.825Z,102010.89
2019-02-21T12:24:44.567Z,102021.25
2019-02-21T12:27:12.321Z,102014.48
2019-02-21T12:29:40.050Z,102010.44
2019-02-21T12:32:07.832Z,102009.50
2019-02-21T12:34:35.578Z,102021.16
2019-02-21T12:37:03.420Z,102021.16
2019-02-21T12:39:31.484Z,102023.03
2019-02-21T12:41:59.306Z,102029.23
2019-02-21T12:44:27.176Z,102031.55
2019-02-21T12:46:54.961Z,102025.69
2019-02-21T12:49:23.035Z,102025.65
2019-02-21T12:51:51.101Z,102022.18
2019-02-21T12:54:18.848Z,102028.83
2019-02-21T12:56:46.877Z,102019.94
2019-02-21T12:59:14.638Z,102019.94
2019-02-21T13:01:42.381Z,102018.55
2019-02-21T13:04:10.144Z,102012.77
2019-02-21T13:06:37.985Z,102011.83
2019-02-21T13:09:07.267Z,102019.00
2019-02-21T13:11:35.628Z,102016.67
2019-02-21T13:14:03.573Z,102019.78
2019-02-21T13:16:31.409Z,102014.06
2019-02-21T13:18:59.148Z,102018.14
2019-02-21T13:21:26.940Z,102014.97
2019-02-21T13:23:54.690Z,102010.03
2019-02-21T13:26:22.493Z,102014.06
2019-02-21T13:28:50.355Z,102006.39
2019-02-21T13:31:18.183Z,102007.75
2019-02-21T13:33:45.967Z,102016.30
2019-02-21T13:36:13.731Z,102014.43
2019-02-21T13:38:41.579Z,102014.06
2019-02-21T13:41:09.350Z,102019.41
2019-02-21T13:43:37.130Z,102010.06
2019-02-21T13:46:04.877Z,102015.41
2019-02-21T13:48:32.624Z,102022.43
2019-02-21T13:51:00.383Z,102020.30
2019-02-21T13:53:28.122Z,102026.18
2019-02-21T13:55:55.857Z,102026.09
2019-02-21T13:58:23.625Z,102032.87
2019-02-21T14:00:51.397Z,102025.36
2019-02-21T14:03:19.153Z,102036.20
2019-02-21T14:05:46.897Z,102034.33
2019-02-21T14:08:14.664Z,102038.41
2019-02-21T14:10:42.473Z,102039.56
2019-02-21T14:13:11.914Z,102039.96
2019-02-21T14:15:39.756Z,102037.77
2019-02-21T14:18:07.623Z,102045.72
2019-02-21T14:20:45.038Z,102042.36
2019-02-21T14:23:04.946Z,102045.09
2019-02-21T14:25:41.016Z,102038.89
2019-02-21T14:28:09.153Z,102039.11
2019-02-21T14:30:37.040Z,102040.13
2019-02-21T14:33:04.898Z,102042.85
2019-02-21T14:35:32.692Z,102039.55
2019-02-21T14:38:00.564Z,102044.57
2019-02-21T14:40:28.318Z,102042.81
2019-02-21T14:42:56.157Z,102045.55
2019-02-21T14:45:23.966Z,102043.71
2019-02-21T14:47:51.784Z,102049.58
2019-02-21T14:50:19.917Z,102044.48
2019-02-21T14:52:47.685Z,102041.47
2019-02-21T14:55:15.456Z,102046.45
2019-02-21T14:57:43.247Z,102046.03
2019-02-21T15:00:13.541Z,102043.52
2019-02-21T15:02:44.735Z,102045.47
2019-02-21T15:05:12.577Z,102050.44
2019-02-21T15:07:44.129Z,102058.96
2019-02-21T15:10:11.598Z,102061.98
2019-02-21T15:12:39.432Z,102067.03
2019-02-21T15:15:07.560Z,102061.77
2019-02-21T15:17:35.383Z,102062.70
2019-02-21T15:20:03.153Z,102059.82
2019-02-21T15:22:30.965Z,102058.66
2019-02-21T15:24:58.735Z,102074.77
2019-02-21T15:27:26.573Z,102075.00
2019-02-21T15:29:54.409Z,102068.87
2019-02-21T15:32:22.186Z,102062.84
2019-02-21T15:34:50.010Z,102064.19
2019-02-21T15:37:17.824Z,102067.89
2019-02-21T15:39:45.646Z,102070.73
2019-02-21T15:42:13.433Z,102075.08
2019-02-21T15:44:41.279Z,102071.66
2019-02-21T15:47:09.063Z,102075.26
2019-02-21T15:49:37.729Z,102077.46
2019-02-21T15:52:05.630Z,102075.26
2019-02-21T15:54:33.564Z,102075.77
2019-02-21T15:57:01.327Z,102073.91
2019-02-21T15:59:29.072Z,102073.91
2019-02-21T16:01:56.861Z,102073.31
2019-02-21T16:04:24.637Z,102085.19
2019-02-21T16:06:52.443Z,102086.05
2019-02-21T16:09:20.429Z,102090.98
2019-02-21T16:11:48.350Z,102093.50
2019-02-21T16:14:16.145Z,102097.23
2019-02-21T16:16:43.889Z,102102.16
2019-02-21T16:19:11.665Z,102105.42
2019-02-21T16:21:39.607Z,102111.41
2019-02-21T16:24:07.442Z,102107.55
2019-02-21T16:26:36.259Z,102120.10
2019-02-21T16:29:04.134Z,102110.23
2019-02-21T16:31:32.533Z,102118.33
2019-02-21T16:34:01.641Z,102115.48
2019-02-21T16:36:29.420Z,102123.88
2019-02-21T16:38:57.177Z,102114.37
2019-02-21T16:41:35.848Z,102114.98
2019-02-21T16:43:54.540Z,102108.94
2019-02-21T16:46:22.381Z,102113.63
2019-02-21T16:48:50.143Z,102115.84
2019-02-21T16:51:18.073Z,102112.58
2019-02-21T16:53:45.859Z,102114.56
2019-02-21T16:56:13.615Z,102084.50
2019-02-21T16:58:42.982Z,102121.67
2019-02-21T17:01:10.820Z,102129.33
2019-02-21T17:03:38.653Z,102132.84
2019-02-21T17:06:06.414Z,102129.87
2019-02-21T17:08:34.196Z,102138.32
2019-02-21T17:11:02.263Z,102134.80
2019-02-21T17:13:30.097Z,102131.17
2019-02-21T17:15:57.859Z,102144.03
2019-02-21T17:18:25.618Z,102144.53
2019-02-21T17:20:54.214Z,102139.19
2019-02-21T17:23:23.091Z,102144.95
2019-02-21T17:25:51.199Z,102145.46
2019-02-21T17:28:19.047Z,102148.98
2019-02-21T17:30:46.937Z,102152.99
2019-02-21T17:33:15.110Z,102154.37
2019-02-21T17:35:44.295Z,102158.38
2019-02-21T17:38:14.360Z,102167.67
2019-02-21T17:40:41.556Z,102157.56
2019-02-21T17:43:09.386Z,102158.34
2019-02-21T17:45:37.159Z,102157.48
2019-02-21T17:48:06.712Z,102163.63
2019-02-21T17:50:36.135Z,102164.38
2019-02-21T17:53:14.643Z,102163.95
2019-02-21T17:55:42.455Z,102157.53
2019-02-21T17:58:10.288Z,102125.13
2019-02-21T18:00:38.308Z,102170.33
2019-02-21T18:03:06.429Z,102170.41
2019-02-21T18:05:34.296Z,102172.41
2019-02-21T18:08:02.074Z,102183.95
2019-02-21T18:10:32.938Z,102180.02
2019-02-21T18:13:00.762Z,102179.33
2019-02-21T18:15:28.615Z,102188.74
2019-02-21T18:17:56.484Z,102187.45
2019-02-21T18:20:24.439Z,102192.72
2019-02-21T18:22:52.229Z,102192.59
2019-02-21T18:25:21.820Z,102200.23
2019-02-21T18:27:55.849Z,102200.76
2019-02-21T18:30:23.589Z,102214.13
2019-02-21T18:32:51.456Z,102208.20
2019-02-21T18:35:19.366Z,102209.09
2019-02-21T18:37:47.955Z,102214.73
2019-02-21T18:40:17.715Z,102219.88
2019-02-21T18:42:45.572Z,102217.17
2019-02-21T18:45:13.317Z,102211.34
2019-02-21T18:47:41.099Z,102220.75
2019-02-21T18:50:09.108Z,102219.91
2019-02-21T18:52:36.955Z,102226.69
2019-02-21T18:55:06.345Z,102222.48
2019-02-21T18:57:34.172Z,102221.95
2019-02-21T19:00:02.012Z,102220.33
2019-02-21T19:02:29.755Z,102229.69
2019-02-21T19:04:57.499Z,102227.11
2019-02-21T19:07:25.306Z,102227.17
2019-02-21T19:09:53.241Z,102227.87
2019-02-21T19:12:21.032Z,102235.60
2019-02-21T19:14:48.786Z,102240.45
2019-02-21T19:17:16.529Z,102234.27
2019-02-21T19:19:44.385Z,102229.89
2019-02-21T19:22:12.125Z,102233.28
2019-02-21T19:24:39.896Z,102242.30
2019-02-21T19:27:07.729Z,102238.55
2019-02-21T19:29:35.469Z,102241.23
2019-02-21T19:32:03.325Z,102244.88
2019-02-21T19:34:34.193Z,102252.53
2019-02-21T19:37:07.693Z,102257.05
2019-02-21T19:39:35.435Z,102228.97
2019-02-21T19:42:03.237Z,102269.41
2019-02-21T19:44:31.138Z,102274.27
2019-02-21T19:46:59.190Z,102286.98
2019-02-21T19:49:27.396Z,102287.33
2019-02-21T19:51:55.325Z,102288.92
2019-02-21T19:54:23.313Z,102287.67
2019-02-21T19:56:51.126Z,102277.48
2019-02-21T19:59:19.416Z,102291.19
2019-02-21T20:01:47.396Z,102279.36
2019-02-21T20:04:15.216Z,102287.28
2019-02-21T20:06:46.758Z,102294.86
2019-02-21T20:09:15.210Z,102289.34
2019-02-21T20:11:43.003Z,102280.58
2019-02-21T20:14:10.766Z,102292.46
2019-02-21T20:16:38.548Z,102301.09
2019-02-21T20:19:06.688Z,102295.72
2019-02-21T20:21:34.439Z,102308.24
2019-02-21T20:24:02.301Z,102311.87
2019-02-21T20:26:30.216Z,102312.98
2019-02-21T20:28:58.006Z,102326.16
2019-02-21T20:31:25.817Z,102331.02
2019-02-21T20:33:53.597Z,102330.22
2019-02-21T20:36:21.365Z,102339.29
2019-02-21T20:38:49.392Z,102333.39
2019-02-21T20:41:18.379Z,102332.98
2019-02-21T20:43:46.200Z,102275.38
2019-02-21T20:46:14.059Z,102339.15
2019-02-21T20:48:41.922Z,102351.77
2019-02-21T20:51:09.803Z,102357.88
2019-02-21T20:53:37.705Z,102359.75
2019-02-21T20:56:06.219Z,102359.75
2019-02-21T20:58:34.201Z,102374.45
2019-02-21T21:01:03.034Z,102370.34
2019-02-21T21:03:30.784Z,102358.41
2019-02-21T21:05:58.676Z,102376.08
2019-02-21T21:08:26.425Z,102383.20
2019-02-21T21:10:54.284Z,102376.55
2019-02-21T21:13:22.150Z,102382.52
2019-02-21T21:15:50.009Z,102383.41
2019-02-21T21:18:17.745Z,102379.97
2019-02-21T21:20:45.492Z,102376.34
2019-02-21T21:23:13.236Z,102382.73
2019-02-21T21:25:41.105Z,102384.53
2019-02-21T21:28:08.832Z,102389.81
2019-02-21T21:30:36.763Z,102391.22
2019-02-21T21:33:04.772Z,102401.20
2019-02-21T21:35:32.545Z,102391.87
2019-02-21T21:38:00.449Z,102397.74
2019-02-21T21:40:28.259Z,102395.03
2019-02-21T21:42:57.660Z,102404.59
2019-02-21T21:45:29.168Z,102408.16
2019-02-21T21:47:57.461Z,102410.16
2019-02-21T21:50:25.289Z,102419.08
2019-02-21T21:52:53.078Z,102418.59
2019-02-21T21:55:21.039Z,102414.39
2019-02-21T21:57:48.796Z,102389.53
2019-02-21T22:00:18.177Z,102425.33
2019-02-21T22:02:46.041Z,102433.78
2019-02-21T22:05:13.930Z,102432.51
2019-02-21T22:07:41.863Z,102444.48
2019-02-21T22:10:10.146Z,102440.04
2019-02-21T22:12:37.980Z,102442.30
2019-02-21T22:15:06.375Z,102447.78
2019-02-21T22:17:34.119Z,102441.97
2019-02-21T22:20:02.291Z,102448.70
2019-02-21T22:22:30.110Z,102452.30
2019-02-21T22:24:57.871Z,102455.83
2019-02-21T22:27:25.789Z,102454.95
2019-02-21T22:29:53.538Z,102458.05
2019-02-21T22:32:22.467Z,102445.12
2019-02-21T22:34:50.261Z,102464.44
2019-02-21T22:37:18.028Z,102467.50
2019-02-21T22:39:46.033Z,102477.40
2019-02-21T22:42:14.043Z,102480.99
2019-02-21T22:44:41.806Z,102482.80
2019-02-21T22:47:09.679Z,102482.87
2019-02-21T22:49:47.024Z,102488.20
2019-02-21T22:52:17.068Z,102489.56
2019-02-21T22:54:44.429Z,102481.05
2019-02-21T22:57:12.189Z,102488.68
2019-02-21T22:59:39.939Z,102489.13
2019-02-21T23:02:07.847Z,102492.29
2019-02-21T23:04:51.256Z,102488.71
2019-02-21T23:07:46.787Z,102492.28
2019-02-21T23:10:14.557Z,102506.59
2019-02-21T23:12:42.369Z,102510.63
2019-02-21T23:15:10.160Z,102509.73
2019-02-21T23:17:37.947Z,102513.30
2019-02-21T23:20:05.995Z,102516.88
2019-02-21T23:22:34.178Z,102511.08
2019-02-21T23:28:16.253Z,102525.34
2019-02-21T23:34:00.944Z,102534.73
2019-02-21T23:36:28.800Z,102536.11
2019-02-21T23:38:56.662Z,102536.59
2019-02-21T23:41:24.448Z,102542.67
2019-02-21T23:43:52.212Z,102541.91
2019-02-21T23:46:19.964Z,102546.80
2019-02-21T23:48:47.718Z,102553.09
2019-02-21T23:51:15.546Z,102560.56
2019-02-21T23:53:43.325Z,102560.50
2019-02-21T23:56:11.402Z,102562.80
2019-02-21T23:58:39.164Z,102558.32
